KBOS/BOS METAR and TAF weather

Enter ICAO airport designator
Station Type Date Time Source
KBOS METAR 2018/10/21 05:54 UTC NOAA

KBOS 210554Z 29007KT 10SM OVC100 11/06 A2957 RMK AO2 SLP013 T01110056 10139 20094 58007


Station Type Date Time Source
KBOS Decoded METAR 2018/10/21 05:54 UTC NOAA

BOSTON LOGAN INTERNATIONAL, MA, United States (KBOS) 42-22N 071-01W 54M
Oct 21, 2018 - 01:54 AM EDT / 2018.10.21 0554 UTC
Wind: from the WNW (290 degrees) at 8 MPH (7 KT):0
Visibility: 10 mile(s):0
Sky conditions: overcast
Temperature: 52.0 F (11.1 C)
Dew Point: 42.1 F (5.6 C)
Relative Humidity: 68%
Pressure (altimeter): 29.57 in. Hg (1001 hPa)
Pressure tendency: 0.02 inches (0.7 hPa) lower than three hours ago
ob: KBOS 210554Z 29007KT 10SM OVC100 11/06 A2957 RMK AO2 SLP013 T01110056 10139 20094 58007
cycle: 6

Station Type Date Time Source
KBOS TAF 2018/10/21 06:38 UTC NOAA

TAF KBOS 210530Z 2106/2212 29006KT P6SM BKN060
FM211000 34011KT P6SM -SHRA OVC035
FM211200 33014G26KT 5SM -SHRA OVC020
FM211400 33016G30KT P6SM OVC100
FM211700 32017G30KT P6SM FEW045
FM220000 31009KT P6SM SKC
FM220900 28005KT P6SM FEW100


Example: see airport list